Terminal Aerodrome Forecast
Issued by NWS

Home | Current Version | Previous Version | Text Only | Print | Product List | Glossary On
Versions: 1 2 3 4 5 6 7 8 9 10 11 12 13 14 15 16 17 18 19
000
FTUS45 KBOU 221725
TAFBJC
TAF
KBJC 221725Z 2218/2318 14007KT P6SM SCT060 BKN140
     FM230000 16006KT P6SM SCT080 BKN200
     FM230300 24007KT P6SM SCT100 BKN200=

USA.gov is the U.S. government's official web portal to all federal, state and local government web resources and services.